Time;durP1;ratioP1;P1;durP2;ratioP2;P2;SDS_P1;SDS_P2;PMS_P1;PMS_P2;Temp;Humidity;BMP_temperature;BMP_pressure;BME280_temperature;BME280_humidity;BME280_pressure;Samples;Min_cycle;Max_cycle;Signal;HPM_P1;HPM_P2
2022/03/27 00:01:18;;;;;;;8.88;5.55;;;18.30;29.10;;;;;;5086748;28;48019;-20
2022/03/27 00:03:45;;;;;;;5.47;4.63;;;18.30;29.10;;;;;;5087039;28;47005;-22
2022/03/27 00:06:11;;;;;;;6.60;5.25;;;18.30;29.10;;;;;;5086795;28;46877;-22
2022/03/27 00:08:39;;;;;;;7.20;5.30;;;18.30;29.10;;;;;;5087448;28;47283;-21
2022/03/27 00:11:24;;;;;;;6.45;5.30;;;18.30;29.20;;;;;;5086796;28;46835;-20
2022/03/27 00:13:51;;;;;;;5.88;4.75;;;18.20;29.10;;;;;;5086471;28;46821;-20
2022/03/27 00:16:18;;;;;;;5.57;4.93;;;18.20;29.20;;;;;;5086697;28;46930;-22
2022/03/27 00:18:45;;;;;;;6.82;5.00;;;18.20;29.30;;;;;;5086951;28;46811;-21
2022/03/27 00:21:12;;;;;;;6.25;4.82;;;18.20;29.20;;;;;;5086472;28;47659;-20
2022/03/27 00:23:40;;;;;;;6.47;5.25;;;18.10;29.20;;;;;;5086697;28;47536;-20
2022/03/27 00:26:07;;;;;;;5.75;4.60;;;18.10;29.20;;;;;;5086904;28;46882;-20
2022/03/27 00:28:33;;;;;;;7.50;5.10;;;18.10;29.30;;;;;;5085585;28;46981;-21
2022/03/27 00:31:00;;;;;;;5.95;5.35;;;18.10;29.30;;;;;;5086600;28;48011;-20
2022/03/27 00:33:27;;;;;;;5.75;4.90;;;18.10;29.30;;;;;;5086328;28;47426;-20
2022/03/27 00:35:54;;;;;;;5.75;5.00;;;18.00;29.30;;;;;;5086687;28;46832;-22
2022/03/27 00:38:21;;;;;;;5.90;4.70;;;18.00;29.30;;;;;;5086213;28;46839;-22
2022/03/27 00:40:50;;;;;;;6.38;4.82;;;18.00;29.30;;;;;;5086745;28;48037;-22
2022/03/27 00:43:16;;;;;;;5.97;4.68;;;18.00;29.30;;;;;;5086227;28;47498;-20
2022/03/27 00:45:43;;;;;;;8.00;5.05;;;18.00;29.30;;;;;;5086499;28;46933;-20
2022/03/27 00:48:10;;;;;;;7.72;5.38;;;17.90;29.30;;;;;;5086598;28;47285;-20
2022/03/27 00:50:37;;;;;;;7.43;5.05;;;17.90;29.30;;;;;;5086054;28;49127;-21
2022/03/27 00:53:04;;;;;;;6.25;5.25;;;17.90;29.30;;;;;;5085754;28;47064;-23
2022/03/27 00:55:30;;;;;;;5.38;4.85;;;17.90;29.40;;;;;;5086169;28;46826;-20
2022/03/27 00:57:58;;;;;;;5.63;5.03;;;17.90;29.30;;;;;;5086509;28;46893;-20
2022/03/27 01:00:44;;;;;;;6.53;4.82;;;17.90;29.30;;;;;;5085861;28;48136;-22
2022/03/27 01:03:12;;;;;;;6.03;5.15;;;17.90;29.30;;;;;;5086031;28;46881;-21
2022/03/27 01:05:38;;;;;;;6.55;4.88;;;17.80;29.30;;;;;;5086084;28;46850;-22
2022/03/27 01:08:07;;;;;;;6.25;4.97;;;17.80;29.30;;;;;;5086183;28;47330;-20
2022/03/27 01:10:34;;;;;;;5.82;5.05;;;17.80;29.30;;;;;;5086220;28;49152;-19
2022/03/27 01:13:03;;;;;;;6.40;4.95;;;17.80;29.30;;;;;;5085566;28;46739;-21
2022/03/27 01:15:32;;;;;;;5.70;4.65;;;17.70;29.30;;;;;;5085911;28;46915;-20
2022/03/27 01:17:59;;;;;;;5.68;4.90;;;17.80;29.30;;;;;;5085933;28;47093;-20
2022/03/27 01:20:30;;;;;;;5.80;4.90;;;17.70;29.30;;;;;;5086013;28;47906;-22
2022/03/27 01:22:57;;;;;;;5.22;4.68;;;17.70;29.40;;;;;;5085707;28;46986;-21
2022/03/27 01:25:24;;;;;;;10.50;5.43;;;17.70;29.40;;;;;;5085985;28;46806;-20
2022/03/27 01:27:50;;;;;;;5.90;4.80;;;17.70;29.30;;;;;;5085870;28;47270;-20
2022/03/27 01:30:17;;;;;;;5.72;4.78;;;17.70;29.30;;;;;;5085642;28;48121;-20
2022/03/27 01:32:44;;;;;;;7.30;4.97;;;17.70;29.30;;;;;;5085444;28;46921;-20
2022/03/27 01:35:11;;;;;;;6.18;5.20;;;17.60;29.30;;;;;;5085831;28;46872;-21
2022/03/27 01:37:39;;;;;;;5.75;5.03;;;17.60;29.30;;;;;;5085919;28;46894;-20
2022/03/27 01:40:07;;;;;;;6.05;4.82;;;17.60;29.30;;;;;;5085652;28;48091;-21
2022/03/27 01:42:33;;;;;;;7.82;5.22;;;17.60;29.30;;;;;;5085208;28;46900;-21
2022/03/27 01:45:00;;;;;;;6.60;5.00;;;17.60;29.40;;;;;;5085499;28;46911;-22
2022/03/27 01:47:27;;;;;;;6.30;4.85;;;17.60;29.40;;;;;;5085189;28;46913;-22
2022/03/27 01:49:54;;;;;;;8.27;5.25;;;17.60;29.40;;;;;;5085315;28;47073;-22
2022/03/27 01:52:20;;;;;;;7.25;5.13;;;17.60;29.40;;;;;;5084947;28;47089;-20
2022/03/27 01:54:48;;;;;;;6.85;4.68;;;17.50;29.40;;;;;;5085551;28;46799;-21
2022/03/27 01:57:15;;;;;;;6.20;5.00;;;17.50;29.50;;;;;;5085245;28;47087;-21
2022/03/27 01:59:42;;;;;;;5.93;5.10;;;17.50;29.50;;;;;;5085279;28;48400;-20
2022/03/27 02:02:09;;;;;;;6.88;5.40;;;17.50;29.40;;;;;;5085403;28;46923;-20
2022/03/27 02:04:36;;;;;;;6.45;5.07;;;17.50;29.40;;;;;;5085205;28;46843;-20
2022/03/27 02:07:03;;;;;;;6.70;4.63;;;17.50;29.40;;;;;;5085409;28;46937;-21
2022/03/27 02:09:30;;;;;;;5.10;4.43;;;17.40;29.40;;;;;;5084960;28;48218;-20
2022/03/27 02:11:58;;;;;;;7.65;5.05;;;17.40;29.50;;;;;;5085228;28;47445;-22
2022/03/27 02:14:24;;;;;;;6.60;5.38;;;17.40;29.50;;;;;;5085262;28;46813;-21
2022/03/27 02:16:51;;;;;;;5.85;4.70;;;17.40;29.50;;;;;;5085100;28;47119;-20
2022/03/27 02:19:18;;;;;;;6.78;4.80;;;17.40;29.40;;;;;;5084818;28;48888;-22
2022/03/27 02:21:44;;;;;;;7.38;4.95;;;17.40;29.60;;;;;;5085143;28;47053;-21
2022/03/27 02:24:11;;;;;;;5.15;4.50;;;17.40;29.60;;;;;;5084751;28;46949;-20
2022/03/27 02:26:43;;;;;;;6.70;5.00;;;17.30;29.50;;;;;;5085067;28;46908;-19
2022/03/27 02:29:13;;;;;;;6.65;5.00;;;17.30;29.50;;;;;;5084592;28;49244;-20
2022/03/27 02:31:39;;;;;;;6.43;4.78;;;17.30;29.60;;;;;;5085047;28;46954;-21
2022/03/27 02:34:06;;;;;;;6.38;5.03;;;17.30;29.60;;;;;;5084914;28;46793;-22
2022/03/27 02:36:33;;;;;;;5.90;4.60;;;17.30;29.60;;;;;;5085180;28;46815;-21
2022/03/27 02:38:59;;;;;;;6.68;4.40;;;17.30;29.60;;;;;;5084715;28;48130;-22
2022/03/27 02:41:26;;;;;;;7.72;4.50;;;17.30;29.70;;;;;;5084874;28;46826;-22
2022/03/27 02:43:53;;;;;;;7.22;4.85;;;17.20;29.60;;;;;;5084929;28;46771;-20
2022/03/27 02:46:21;;;;;;;5.95;5.03;;;17.20;29.60;;;;;;5085037;28;46945;-22
2022/03/27 02:48:48;;;;;;;5.32;4.38;;;17.20;29.70;;;;;;5084700;28;47071;-21
2022/03/27 02:51:15;;;;;;;6.80;4.75;;;17.20;29.70;;;;;;5086659;27;47409;-20
2022/03/27 02:53:42;;;;;;;5.68;4.57;;;17.20;29.70;;;;;;5087799;28;46900;-21
2022/03/27 02:56:08;;;;;;;6.90;4.95;;;17.20;29.70;;;;;;5088575;28;46893;-20
2022/03/27 02:58:35;;;;;;;5.18;4.32;;;17.20;29.70;;;;;;5088014;28;48224;-20
2022/03/27 03:01:02;;;;;;;7.47;4.53;;;17.20;29.70;;;;;;5088231;28;46815;-20
2022/03/27 03:03:31;;;;;;;6.05;4.72;;;17.20;29.70;;;;;;5087942;28;46996;-40
2022/03/27 03:05:58;;;;;;;8.48;4.75;;;17.10;29.70;;;;;;5088293;28;47291;-20
2022/03/27 03:08:25;;;;;;;6.72;4.32;;;17.10;29.70;;;;;;5087649;28;46928;-20
2022/03/27 03:10:52;;;;;;;6.85;4.63;;;17.10;29.70;;;;;;5087699;28;47441;-21
2022/03/27 03:13:19;;;;;;;6.15;4.57;;;17.10;29.80;;;;;;5087885;28;47026;-20
2022/03/27 03:15:46;;;;;;;6.18;4.40;;;17.10;29.80;;;;;;5088162;28;46893;-22
2022/03/27 03:18:13;;;;;;;5.97;4.18;;;17.00;29.80;;;;;;5087742;28;48063;-21
2022/03/27 03:20:41;;;;;;;6.70;4.20;;;17.00;29.70;;;;;;5088158;28;46909;-21
2022/03/27 03:23:07;;;;;;;5.47;4.47;;;17.00;29.80;;;;;;5087546;28;46950;-20
2022/03/27 03:25:34;;;;;;;6.93;4.57;;;17.00;29.80;;;;;;5087941;28;47210;-21
2022/03/27 03:28:01;;;;;;;5.88;4.53;;;17.00;29.80;;;;;;5087074;28;48925;-21
2022/03/27 03:30:28;;;;;;;6.72;4.40;;;16.90;29.90;;;;;;5087353;28;46953;-21
2022/03/27 03:32:54;;;;;;;6.57;4.32;;;16.90;29.80;;;;;;5087517;28;46856;-21
2022/03/27 03:35:21;;;;;;;7.10;4.43;;;16.90;29.90;;;;;;5087586;28;46909;-22
2022/03/27 03:37:49;;;;;;;5.43;4.57;;;16.90;29.90;;;;;;5087175;28;48219;-20
2022/03/27 03:40:16;;;;;;;8.70;4.97;;;16.90;29.90;;;;;;5087502;28;46901;-20
2022/03/27 03:42:43;;;;;;;6.65;4.68;;;16.80;29.90;;;;;;5087632;28;46818;-22
2022/03/27 03:45:10;;;;;;;7.68;5.13;;;16.80;29.90;;;;;;5087722;28;46939;-21
2022/03/27 03:47:37;;;;;;;5.70;4.25;;;16.80;30.00;;;;;;5086800;28;46937;-20
2022/03/27 03:50:05;;;;;;;4.95;4.43;;;16.80;29.90;;;;;;5087135;28;46897;-21
2022/03/27 03:52:32;;;;;;;7.53;4.78;;;16.80;30.00;;;;;;5087002;28;47196;-22
2022/03/27 03:55:00;;;;;;;6.93;4.78;;;16.70;30.00;;;;;;5087722;28;47168;-22
2022/03/27 03:57:26;;;;;;;5.30;4.22;;;16.70;30.00;;;;;;5086904;28;48100;-21
2022/03/27 03:59:53;;;;;;;5.72;4.82;;;16.70;30.00;;;;;;5087054;28;46924;-20
2022/03/27 04:02:20;;;;;;;5.93;4.25;;;16.70;30.00;;;;;;5087033;28;46884;-20
2022/03/27 04:04:47;;;;;;;7.53;5.05;;;16.70;30.00;;;;;;5087525;28;46905;-20
2022/03/27 04:07:14;;;;;;;6.53;4.28;;;16.70;30.00;;;;;;5086595;28;47950;-21
2022/03/27 04:09:41;;;;;;;5.03;4.30;;;16.60;30.00;;;;;;5087371;28;46815;-20
2022/03/27 04:12:11;;;;;;;7.05;4.90;;;16.60;30.00;;;;;;5086857;28;47065;-20
2022/03/27 04:14:39;;;;;;;6.22;4.65;;;16.60;30.10;;;;;;5087106;28;47211;-20
2022/03/27 04:17:05;;;;;;;6.78;4.32;;;16.60;30.10;;;;;;5086781;28;49071;-22
2022/03/27 04:19:32;;;;;;;6.78;4.43;;;16.60;30.10;;;;;;5086861;28;46843;-22
2022/03/27 04:21:59;;;;;;;7.18;4.50;;;16.50;30.00;;;;;;5086655;28;46806;-22
2022/03/27 04:24:25;;;;;;;8.55;4.72;;;16.50;30.10;;;;;;5087108;28;47185;-22
2022/03/27 04:26:52;;;;;;;5.95;4.60;;;16.50;30.10;;;;;;5086776;28;47036;-21
2022/03/27 04:29:21;;;;;;;7.72;4.93;;;16.50;30.00;;;;;;5086707;28;46853;-21
2022/03/27 04:31:48;;;;;;;6.53;4.72;;;16.50;30.80;;;;;;5086785;28;46838;-21
2022/03/27 04:34:14;;;;;;;5.75;4.45;;;16.40;30.10;;;;;;5086640;28;47362;-21
2022/03/27 04:36:41;;;;;;;5.97;4.65;;;16.40;30.10;;;;;;5086590;28;46874;-22
2022/03/27 04:39:08;;;;;;;7.03;4.80;;;16.40;30.20;;;;;;5086245;28;47579;-20
2022/03/27 04:41:35;;;;;;;6.25;4.50;;;16.40;30.20;;;;;;5086669;28;47161;-22
2022/03/27 04:44:01;;;;;;;5.32;4.63;;;16.30;30.20;;;;;;5086544;28;47295;-21
2022/03/27 04:46:29;;;;;;;6.00;3.95;;;16.30;30.20;;;;;;5086800;28;46834;-21
2022/03/27 04:48:56;;;;;;;7.43;4.72;;;16.30;30.20;;;;;;5086105;28;46941;-20
2022/03/27 04:51:23;;;;;;;7.32;4.72;;;16.30;30.20;;;;;;5086183;28;46868;-21
2022/03/27 04:53:50;;;;;;;7.60;4.65;;;16.30;30.20;;;;;;5086447;28;47298;-22
2022/03/27 04:56:16;;;;;;;6.88;4.90;;;16.30;30.30;;;;;;5086290;28;48110;-21
2022/03/27 04:58:43;;;;;;;6.28;4.50;;;16.20;30.30;;;;;;5085955;28;47164;-20
2022/03/27 05:01:11;;;;;;;8.02;5.03;;;16.20;30.30;;;;;;5086187;28;46891;-20
2022/03/27 05:03:39;;;;;;;6.53;5.00;;;16.20;30.20;;;;;;5086602;28;46863;-20
2022/03/27 05:06:05;;;;;;;6.18;4.70;;;16.20;31.00;;;;;;5086143;28;48114;-20
2022/03/27 05:08:33;;;;;;;6.50;4.50;;;16.20;30.40;;;;;;5085990;28;46958;-21
2022/03/27 05:10:59;;;;;;;5.47;4.15;;;16.10;30.40;;;;;;5085961;28;46909;-20
2022/03/27 05:13:26;;;;;;;8.02;4.85;;;16.10;30.40;;;;;;5085243;27;46913;-20
2022/03/27 05:15:53;;;;;;;6.68;4.68;;;16.10;30.40;;;;;;5085755;28;47892;-21
2022/03/27 05:18:21;;;;;;;8.10;5.15;;;16.10;30.40;;;;;;5085587;28;46950;-20
2022/03/27 05:20:49;;;;;;;7.10;5.05;;;16.10;30.40;;;;;;5085905;28;46878;-22
2022/03/27 05:23:16;;;;;;;5.60;4.30;;;16.00;30.50;;;;;;5085832;28;46957;-20
2022/03/27 05:25:45;;;;;;;5.97;4.55;;;16.00;30.50;;;;;;5085768;28;49041;-20
2022/03/27 05:28:14;;;;;;;6.63;4.68;;;16.00;30.50;;;;;;5085559;28;47155;-22
2022/03/27 05:30:41;;;;;;;5.93;4.53;;;16.00;30.60;;;;;;5086044;28;47023;-20
2022/03/27 05:33:08;;;;;;;7.60;4.63;;;16.00;30.50;;;;;;5085662;28;47316;-21
2022/03/27 05:35:35;;;;;;;9.68;5.43;;;16.00;30.60;;;;;;5085440;28;48212;-22
2022/03/27 05:38:03;;;;;;;6.00;4.70;;;15.90;30.60;;;;;;5085418;28;46848;-22
2022/03/27 05:40:29;;;;;;;6.90;4.40;;;15.90;30.60;;;;;;5085532;28;46834;-20
2022/03/27 05:42:56;;;;;;;7.15;4.90;;;15.90;30.60;;;;;;5085735;28;47190;-22
2022/03/27 05:45:23;;;;;;;6.47;4.70;;;15.90;30.60;;;;;;5085578;28;49110;-20
2022/03/27 05:47:50;;;;;;;5.32;4.45;;;15.90;30.60;;;;;;5085356;28;46873;-21
2022/03/27 05:50:18;;;;;;;6.28;4.72;;;15.90;30.70;;;;;;5085350;28;46870;-23
2022/03/27 05:52:45;;;;;;;6.30;4.85;;;15.90;30.70;;;;;;5085351;28;46847;-22
2022/03/27 05:55:13;;;;;;;7.55;5.13;;;15.90;30.70;;;;;;5085301;28;47811;-20
2022/03/27 05:57:40;;;;;;;8.20;4.65;;;15.80;30.70;;;;;;5085276;28;46911;-20
2022/03/27 06:00:09;;;;;;;7.55;4.68;;;15.80;30.70;;;;;;5085316;28;46962;-22
2022/03/27 06:02:35;;;;;;;6.53;4.95;;;15.80;30.80;;;;;;5085349;28;47008;-20
2022/03/27 06:05:02;;;;;;;6.00;4.63;;;15.80;30.80;;;;;;5085302;28;48395;-20
2022/03/27 06:07:29;;;;;;;6.72;4.78;;;15.80;30.80;;;;;;5085063;28;46857;-22
2022/03/27 06:09:55;;;;;;;8.73;4.50;;;15.80;30.80;;;;;;5085078;28;46930;-20
2022/03/27 06:12:23;;;;;;;6.30;4.80;;;15.80;30.80;;;;;;5084981;28;46989;-21
2022/03/27 06:14:50;;;;;;;6.82;4.80;;;15.80;30.90;;;;;;5085268;28;47819;-20
2022/03/27 06:17:17;;;;;;;6.63;4.90;;;15.70;30.80;;;;;;5084944;28;47223;-20
2022/03/27 06:19:43;;;;;;;7.18;4.70;;;15.70;30.80;;;;;;5085030;28;46881;-22
2022/03/27 06:22:10;;;;;;;8.50;4.40;;;15.70;30.80;;;;;;5085465;28;47304;-21
2022/03/27 06:24:38;;;;;;;7.35;4.95;;;15.70;30.90;;;;;;5085355;27;47952;-23
2022/03/27 06:27:05;;;;;;;9.05;4.78;;;15.70;30.80;;;;;;5088105;28;47056;-20
2022/03/27 06:29:33;;;;;;;9.38;5.20;;;15.70;30.90;;;;;;5088468;28;46905;-22
2022/03/27 06:32:00;;;;;;;6.72;4.93;;;15.70;31.00;;;;;;5088919;28;46881;-20
2022/03/27 06:34:29;;;;;;;7.10;4.60;;;15.70;30.90;;;;;;5088580;28;49043;-22
2022/03/27 06:36:56;;;;;;;7.35;4.72;;;15.70;31.00;;;;;;5088227;28;46937;-22
2022/03/27 06:39:23;;;;;;;7.72;5.05;;;15.70;31.00;;;;;;5088270;28;46877;-21
2022/03/27 06:41:49;;;;;;;6.05;4.45;;;15.70;31.00;;;;;;5088502;28;47258;-22
2022/03/27 06:44:16;;;;;;;6.97;4.88;;;15.60;31.00;;;;;;5088256;28;47931;-21
2022/03/27 06:46:44;;;;;;;6.90;4.80;;;15.60;31.00;;;;;;5088187;28;46897;-21
2022/03/27 06:49:12;;;;;;;8.15;5.05;;;15.60;31.00;;;;;;5088163;28;47051;-21
2022/03/27 06:51:39;;;;;;;6.82;4.63;;;15.60;31.00;;;;;;5088325;28;47306;-20
2022/03/27 06:54:05;;;;;;;7.68;5.07;;;15.60;31.00;;;;;;5087602;28;48223;-21
2022/03/27 06:56:32;;;;;;;8.63;4.95;;;15.60;31.00;;;;;;5088315;28;46868;-22
2022/03/27 06:58:59;;;;;;;7.68;5.38;;;15.60;31.10;;;;;;5087871;28;46884;-22
2022/03/27 07:04:11;;;;;;;6.07;4.68;;;15.60;31.00;;;;;;5087842;28;46834;-22
2022/03/27 07:06:42;;;;;;;6.30;4.70;;;15.60;31.10;;;;;;5087878;28;46894;-20
2022/03/27 07:09:09;;;;;;;8.68;4.95;;;15.60;31.10;;;;;;5087716;28;46926;-22
2022/03/27 07:11:36;;;;;;;7.55;4.50;;;15.70;31.10;;;;;;5087953;28;47262;-21
2022/03/27 07:14:03;;;;;;;6.68;4.97;;;15.60;31.00;;;;;;5087566;28;48784;-21
2022/03/27 07:16:31;;;;;;;8.93;4.85;;;15.60;31.20;;;;;;5088012;28;46878;-22
2022/03/27 07:18:58;;;;;;;6.40;4.50;;;15.60;31.20;;;;;;5088075;28;46881;-22
2022/03/27 07:21:26;;;;;;;4.97;4.30;;;15.60;31.20;;;;;;5087912;28;47034;-21
2022/03/27 07:23:53;;;;;;;7.90;4.97;;;15.60;31.20;;;;;;5087742;28;49072;-21
2022/03/27 07:26:20;;;;;;;8.88;4.80;;;15.70;31.20;;;;;;5087597;28;47012;-22
2022/03/27 07:28:46;;;;;;;6.88;5.07;;;15.70;31.30;;;;;;5087513;28;46955;-20
2022/03/27 07:31:13;;;;;;;6.80;4.38;;;15.70;31.30;;;;;;5087947;28;46934;-23
2022/03/27 07:33:40;;;;;;;7.45;4.60;;;15.70;31.30;;;;;;5087455;28;48930;-22
2022/03/27 07:36:07;;;;;;;6.32;4.18;;;15.70;31.20;;;;;;5087167;27;46849;-21
2022/03/27 07:38:35;;;;;;;6.75;4.55;;;15.70;31.30;;;;;;5087527;28;46916;-20
2022/03/27 07:41:02;;;;;;;7.50;5.03;;;15.70;31.20;;;;;;5087704;28;47290;-22
2022/03/27 07:43:30;;;;;;;7.13;4.57;;;15.70;31.20;;;;;;5087325;28;48132;-20
2022/03/27 07:45:57;;;;;;;6.88;4.25;;;15.70;31.20;;;;;;5087224;28;46971;-21
2022/03/27 07:48:24;;;;;;;8.35;4.72;;;15.70;31.20;;;;;;5087320;28;47009;-22
2022/03/27 07:50:54;;;;;;;6.68;5.03;;;15.70;31.30;;;;;;5087660;28;46939;-22
2022/03/27 07:53:21;;;;;;;8.60;4.60;;;15.80;31.40;;;;;;5086541;28;48772;-20
2022/03/27 07:55:49;;;;;;;8.93;5.00;;;15.80;31.30;;;;;;5087285;28;46916;-22
2022/03/27 07:58:16;;;;;;;7.55;4.70;;;15.80;31.40;;;;;;5086506;28;46897;-21
2022/03/27 08:00:43;;;;;;;5.32;4.25;;;15.80;31.50;;;;;;5087173;28;46831;-22
2022/03/27 08:03:09;;;;;;;7.97;4.55;;;15.80;31.40;;;;;;5086812;28;49008;-20
2022/03/27 08:05:36;;;;;;;10.85;5.60;;;15.80;31.30;;;;;;5086776;28;46823;-20
2022/03/27 08:08:03;;;;;;;6.03;4.50;;;15.90;31.40;;;;;;5086689;28;46975;-22
2022/03/27 08:10:30;;;;;;;6.28;5.00;;;15.90;31.60;;;;;;5087234;28;46954;-21
2022/03/27 08:12:59;;;;;;;10.65;4.75;;;15.90;31.50;;;;;;5086130;28;48781;-21
2022/03/27 08:15:26;;;;;;;6.82;5.18;;;15.90;31.40;;;;;;5085770;28;46889;-20
2022/03/27 08:17:53;;;;;;;8.40;4.90;;;15.90;31.30;;;;;;5085096;28;46864;-22
2022/03/27 08:20:21;;;;;;;7.57;4.45;;;16.00;31.40;;;;;;5086938;28;46968;-21
2022/03/27 08:22:47;;;;;;;6.65;4.75;;;16.00;31.50;;;;;;5085582;28;48155;-21
2022/03/27 08:26:55;;;;;;;8.50;5.15;;;16.00;31.50;;;;;;5086676;28;46904;-22
2022/03/27 08:28:01;;;;;;;6.07;4.30;;;16.00;31.50;;;;;;5086388;28;46793;-22
2022/03/27 08:30:28;;;;;;;6.47;4.43;;;16.00;31.70;;;;;;5086802;28;46856;-21
2022/03/27 08:32:55;;;;;;;7.10;4.35;;;16.00;31.60;;;;;;5085973;28;48122;-22
2022/03/27 08:35:21;;;;;;;7.85;4.65;;;16.00;31.60;;;;;;5086164;28;46908;-21
2022/03/27 08:37:48;;;;;;;6.60;5.18;;;16.00;31.50;;;;;;5086121;28;46855;-20
2022/03/27 08:40:15;;;;;;;7.82;4.40;;;16.10;31.50;;;;;;5086764;28;46905;-21
2022/03/27 08:42:44;;;;;;;8.57;5.32;;;16.10;31.50;;;;;;5086049;28;47816;-20
2022/03/27 08:45:12;;;;;;;7.57;4.95;;;16.10;31.60;;;;;;5086421;28;46906;-20
2022/03/27 08:47:40;;;;;;;9.32;4.70;;;16.10;31.50;;;;;;5085601;27;46904;-20
2022/03/27 08:50:14;;;;;;;9.15;4.60;;;16.10;31.50;;;;;;5086110;28;46889;-20
2022/03/27 08:52:52;;;;;;;8.82;4.70;;;16.20;31.50;;;;;;5085068;28;47913;-21
2022/03/27 08:55:21;;;;;;;6.25;4.28;;;16.20;32.10;;;;;;5085998;28;46803;-20
2022/03/27 08:57:55;;;;;;;6.05;4.25;;;16.20;31.30;;;;;;5086066;28;46953;-21
2022/03/27 09:00:23;;;;;;;11.85;4.70;;;16.20;31.40;;;;;;5085949;28;47136;-21
2022/03/27 09:02:50;;;;;;;10.05;5.15;;;16.20;31.50;;;;;;5084003;28;48848;-20
2022/03/27 09:05:20;;;;;;;8.40;4.55;;;16.30;31.50;;;;;;5084210;28;47148;-20
2022/03/27 09:07:47;;;;;;;9.73;3.78;;;16.30;31.50;;;;;;5084019;28;46981;-20
2022/03/27 09:10:13;;;;;;;9.48;4.82;;;16.30;31.50;;;;;;5084551;28;47249;-20
2022/03/27 09:12:40;;;;;;;8.45;4.53;;;16.30;31.50;;;;;;5083615;28;47841;-21
2022/03/27 09:15:09;;;;;;;7.05;4.70;;;16.30;31.50;;;;;;5083888;28;47207;-20
2022/03/27 09:17:55;;;;;;;10.68;4.28;;;16.30;31.50;;;;;;5085429;28;47296;-20
2022/03/27 09:20:30;;;;;;;15.20;5.35;;;16.30;31.60;;;;;;5086179;28;46943;-21
2022/03/27 09:22:59;;;;;;;11.80;4.75;;;16.40;31.70;;;;;;5085220;28;46897;-22
2022/03/27 09:25:28;;;;;;;11.65;4.40;;;16.40;31.80;;;;;;5085667;28;47452;-20
2022/03/27 09:27:58;;;;;;;9.07;5.03;;;16.40;31.90;;;;;;5085293;28;46938;-21
2022/03/27 09:30:26;;;;;;;11.60;4.72;;;16.40;32.00;;;;;;5085820;28;46979;-20
2022/03/27 09:32:54;;;;;;;10.52;4.75;;;16.40;31.80;;;;;;5085509;28;48851;-20
2022/03/27 09:35:21;;;;;;;9.48;4.75;;;16.50;31.70;;;;;;5085262;28;46901;-20
2022/03/27 09:37:49;;;;;;;12.32;5.10;;;16.50;32.30;;;;;;5084970;28;47540;-21
2022/03/27 09:40:17;;;;;;;6.43;4.60;;;16.50;31.70;;;;;;5085512;28;46896;-20
2022/03/27 09:42:44;;;;;;;12.05;4.70;;;16.60;31.60;;;;;;5084959;28;48931;-21
2022/03/27 09:45:12;;;;;;;9.40;4.35;;;16.60;31.70;;;;;;5085737;28;47244;-21
2022/03/27 09:47:39;;;;;;;13.73;4.68;;;16.60;31.70;;;;;;5085171;28;46924;-21
2022/03/27 09:50:07;;;;;;;10.15;5.28;;;16.60;32.00;;;;;;5085183;28;47207;-24
2022/03/27 09:52:34;;;;;;;7.55;4.80;;;16.70;32.00;;;;;;5084516;28;46916;-20
2022/03/27 09:55:03;;;;;;;10.02;4.90;;;16.70;31.90;;;;;;5085185;28;47184;-20
2022/03/27 09:57:30;;;;;;;15.68;5.18;;;16.70;32.20;;;;;;5083999;28;47106;-21
2022/03/27 09:59:58;;;;;;;14.15;4.97;;;16.80;32.20;;;;;;5085790;27;46871;-20
2022/03/27 10:02:26;;;;;;;10.57;5.10;;;16.80;32.10;;;;;;5087255;28;47832;-21
2022/03/27 10:04:58;;;;;;;13.15;5.07;;;16.80;32.50;;;;;;5087847;28;47258;-20
2022/03/27 10:07:27;;;;;;;15.57;5.00;;;16.90;32.60;;;;;;5087284;28;46804;-21
2022/03/27 10:09:54;;;;;;;11.55;5.18;;;16.90;32.80;;;;;;5087824;28;47070;-21
2022/03/27 10:12:25;;;;;;;10.23;4.72;;;17.00;32.90;;;;;;5088126;28;48947;-20
2022/03/27 10:14:52;;;;;;;16.38;5.00;;;17.00;32.90;;;;;;5088843;28;46991;-22
2022/03/27 10:17:20;;;;;;;15.10;5.05;;;17.00;33.10;;;;;;5088471;28;46917;-21
2022/03/27 10:19:49;;;;;;;11.20;5.38;;;17.10;33.10;;;;;;5089085;28;47222;-21
2022/03/27 10:22:20;;;;;;;15.00;5.35;;;17.10;32.90;;;;;;5088236;27;49061;-20
2022/03/27 10:24:50;;;;;;;12.80;4.65;;;17.20;33.00;;;;;;5089133;27;46976;-20
2022/03/27 10:27:18;;;;;;;17.30;5.57;;;17.20;33.10;;;;;;5088189;28;46870;-20
2022/03/27 10:29:45;;;;;;;22.00;6.10;;;17.30;33.20;;;;;;5088529;28;47196;-20
2022/03/27 10:32:12;;;;;;;17.50;5.53;;;17.30;33.10;;;;;;5087900;28;47277;-21
2022/03/27 10:34:47;;;;;;;12.18;5.53;;;17.40;33.20;;;;;;5088103;28;46943;-22
2022/03/27 10:37:18;;;;;;;11.35;5.45;;;17.40;33.20;;;;;;5088297;28;46799;-21
2022/03/27 10:39:46;;;;;;;19.85;5.60;;;17.50;33.30;;;;;;5088427;28;46931;-20
2022/03/27 10:42:17;;;;;;;21.42;5.97;;;17.60;33.40;;;;;;5087708;28;47052;-20
2022/03/27 10:44:46;;;;;;;21.17;5.97;;;17.60;33.40;;;;;;5088111;28;47412;-20
2022/03/27 10:47:14;;;;;;;17.38;5.45;;;17.70;33.40;;;;;;5087973;28;46905;-22
2022/03/27 10:49:41;;;;;;;17.73;5.78;;;17.80;33.40;;;;;;5088216;28;47189;-21
2022/03/27 10:52:09;;;;;;;15.95;6.20;;;17.90;33.50;;;;;;5088060;28;48805;-20
2022/03/27 10:54:58;;;;;;;21.83;6.40;;;17.90;33.50;;;;;;5088157;28;46927;-21
2022/03/27 10:57:33;;;;;;;16.50;5.80;;;18.00;33.50;;;;;;5087812;28;46902;-20
2022/03/27 11:00:00;;;;;;;20.25;6.25;;;18.10;33.50;;;;;;5088065;28;47278;-20
2022/03/27 11:02:46;;;;;;;20.95;6.70;;;18.20;33.60;;;;;;5087251;28;47911;-20
2022/03/27 11:05:48;;;;;;;17.63;6.55;;;18.30;33.70;;;;;;5087726;28;46910;-20
2022/03/27 11:08:46;;;;;;;11.80;5.15;;;18.40;33.90;;;;;;5087514;28;47005;-21
2022/03/27 11:11:22;;;;;;;14.45;4.90;;;18.50;33.90;;;;;;5086415;27;47067;-21
2022/03/27 11:13:51;;;;;;;20.90;5.47;;;18.60;33.70;;;;;;5087091;28;46911;-21
2022/03/27 11:16:18;;;;;;;13.82;5.32;;;18.70;33.70;;;;;;5086455;28;46823;-22
2022/03/27 11:18:45;;;;;;;15.98;5.38;;;18.70;33.70;;;;;;5087483;28;46946;-20
2022/03/27 11:21:13;;;;;;;15.45;5.43;;;18.80;33.60;;;;;;5087582;28;46917;-20
2022/03/27 11:23:40;;;;;;;16.13;5.15;;;18.90;33.60;;;;;;5087214;28;48853;-22
2022/03/27 11:26:29;;;;;;;18.90;6.07;;;19.00;33.60;;;;;;5087367;28;46882;-22
2022/03/27 11:28:59;;;;;;;19.13;5.70;;;19.10;33.70;;;;;;5086979;28;46956;-22
2022/03/27 11:31:29;;;;;;;16.60;5.40;;;19.10;33.40;;;;;;5087439;28;46933;-21
2022/03/27 11:34:18;;;;;;;14.85;6.03;;;19.30;33.40;;;;;;5086812;28;47347;-20
2022/03/27 11:37:10;;;;;;;20.77;6.15;;;19.30;33.40;;;;;;5086124;28;47012;-20
2022/03/27 11:39:38;;;;;;;33.33;6.25;;;19.40;34.10;;;;;;5085273;28;47015;-23
2022/03/27 11:42:28;;;;;;;23.02;7.22;;;19.60;33.30;;;;;;5084650;28;47191;-20
2022/03/27 11:45:22;;;;;;;23.58;6.45;;;19.60;33.40;;;;;;5084156;28;47981;-22
2022/03/27 11:47:50;;;;;;;25.60;7.05;;;19.70;33.40;;;;;;5083943;28;47013;-22
2022/03/27 11:50:22;;;;;;;24.55;6.57;;;19.80;33.30;;;;;;5085400;28;46971;-21
2022/03/27 11:52:49;;;;;;;25.17;6.28;;;19.90;33.20;;;;;;5085112;28;46921;-20
2022/03/27 11:55:18;;;;;;;17.55;5.63;;;19.90;33.00;;;;;;5086999;28;47061;-21
2022/03/27 11:57:46;;;;;;;24.30;6.18;;;20.00;33.20;;;;;;5086463;28;46905;-20
2022/03/27 12:00:14;;;;;;;22.42;5.50;;;20.10;32.90;;;;;;5086835;28;46748;-20
2022/03/27 12:02:42;;;;;;;18.13;6.25;;;20.20;32.80;;;;;;5086576;28;47175;-20
2022/03/27 12:05:10;;;;;;;18.67;6.28;;;20.20;32.90;;;;;;5086725;28;47905;-20
2022/03/27 12:07:50;;;;;;;16.40;5.88;;;20.30;32.70;;;;;;5086138;28;47512;-20
2022/03/27 12:10:17;;;;;;;18.30;5.22;;;20.40;32.60;;;;;;5086551;28;46849;-19
2022/03/27 12:12:56;;;;;;;16.50;5.50;;;20.50;32.40;;;;;;5086672;28;46833;-21
2022/03/27 12:15:23;;;;;;;16.30;6.10;;;20.50;32.60;;;;;;5086667;28;48268;-22
2022/03/27 12:17:51;;;;;;;15.27;5.35;;;20.60;32.60;;;;;;5086338;28;47064;-20
2022/03/27 12:20:17;;;;;;;16.00;5.88;;;20.70;32.30;;;;;;5086615;28;46949;-20
2022/03/27 12:22:45;;;;;;;14.05;5.60;;;20.70;32.30;;;;;;5085237;28;46901;-21
2022/03/27 12:25:19;;;;;;;10.40;5.45;;;20.80;32.40;;;;;;5085670;28;48881;-21
2022/03/27 12:30:35;;;;;;;14.65;5.78;;;20.90;32.80;;;;;;5086483;27;47043;-21
2022/03/27 12:33:03;;;;;;;14.48;5.40;;;20.90;33.20;;;;;;5089376;27;46957;-20
2022/03/27 12:35:30;;;;;;;14.75;5.10;;;21.10;32.50;;;;;;5091793;27;46826;-20
2022/03/27 12:37:57;;;;;;;11.95;5.03;;;21.30;32.10;;;;;;5099916;27;46834;-20
2022/03/27 12:40:24;;;;;;;14.63;5.43;;;21.40;32.10;;;;;;5092398;27;46899;-23
2022/03/27 12:42:52;;;;;;;11.75;5.15;;;21.60;31.80;;;;;;5086421;28;46920;-17
2022/03/27 12:45:22;;;;;;;21.42;5.32;;;21.70;32.30;;;;;;5085334;28;47911;-16
2022/03/27 12:47:49;;;;;;;10.60;4.95;;;21.80;32.20;;;;;;5086095;28;46814;-16
2022/03/27 12:50:31;;;;;;;15.15;4.80;;;21.90;32.00;;;;;;5081194;28;47081;-19
2022/03/27 12:53:00;;;;;;;10.93;4.68;;;21.90;32.40;;;;;;5084455;27;47013;-18
2022/03/27 12:55:29;;;;;;;17.35;4.93;;;21.90;32.30;;;;;;5087465;27;47850;-22